createdAt,value
2022-09-23T00:00:09.531Z,10.68
2022-09-23T00:02:14.576Z,9.05
2022-09-23T00:04:16.902Z,10.10
2022-09-23T00:06:20.722Z,9.45
2022-09-23T00:08:23.072Z,9.30
2022-09-23T00:10:27.634Z,11.00
2022-09-23T00:12:29.982Z,11.10
2022-09-23T00:14:32.313Z,13.25
2022-09-23T00:16:38.894Z,9.35
2022-09-23T00:18:44.655Z,10.60
2022-09-23T00:20:47.019Z,9.27
2022-09-23T00:22:51.734Z,10.73
2022-09-23T00:24:53.985Z,11.82
2022-09-23T00:26:56.204Z,9.55
2022-09-23T00:28:58.519Z,8.88
2022-09-23T00:31:03.141Z,9.68
2022-09-23T00:33:08.066Z,8.80
2022-09-23T00:35:12.665Z,9.23
2022-09-23T00:37:14.919Z,10.65
2022-09-23T00:39:20.305Z,10.13
2022-09-23T00:41:22.964Z,12.35
2022-09-23T00:43:40.417Z,10.05
2022-09-23T00:45:47.008Z,11.63
2022-09-23T00:47:54.880Z,9.82
2022-09-23T00:50:06.502Z,9.50
2022-09-23T00:52:20.136Z,10.30
2022-09-23T00:54:24.791Z,13.68
2022-09-23T00:56:27.121Z,9.57
2022-09-23T00:58:34.111Z,11.27
2022-09-23T01:00:36.695Z,9.93
2022-09-23T01:02:42.346Z,9.52
2022-09-23T01:04:45.244Z,11.27
2022-09-23T01:06:50.211Z,11.57
2022-09-23T01:08:55.677Z,10.02
2022-09-23T01:11:08.216Z,10.77
2022-09-23T01:13:17.408Z,13.48
2022-09-23T01:15:25.056Z,10.90
2022-09-23T01:17:34.592Z,10.25
2022-09-23T01:20:05.822Z,13.88
2022-09-23T01:22:17.493Z,12.40
2022-09-23T01:24:45.486Z,13.57
2022-09-23T01:26:59.995Z,11.10
2022-09-23T01:29:19.088Z,10.75
2022-09-23T01:31:30.046Z,11.18
2022-09-23T01:33:40.200Z,10.52
2022-09-23T01:36:19.061Z,12.55
2022-09-23T01:38:32.879Z,12.30
2022-09-23T01:40:45.435Z,11.27
2022-09-23T01:42:54.024Z,10.73
2022-09-23T01:45:00.982Z,10.32
2022-09-23T01:47:11.016Z,10.75
2022-09-23T01:49:18.315Z,9.23
2022-09-23T01:51:25.366Z,10.73
2022-09-23T01:53:34.929Z,10.95
2022-09-23T01:55:45.418Z,9.68
2022-09-23T01:57:58.138Z,10.07
2022-09-23T02:00:05.624Z,11.93
2022-09-23T02:02:15.431Z,13.02
2022-09-23T02:04:23.982Z,9.65
2022-09-23T02:06:30.217Z,10.57
2022-09-23T02:08:37.806Z,11.55
2022-09-23T02:10:44.715Z,10.75
2022-09-23T02:12:49.992Z,13.63
2022-09-23T02:14:57.891Z,10.77
2022-09-23T02:17:04.845Z,12.77
2022-09-23T02:19:13.611Z,11.38
2022-09-23T02:21:17.907Z,11.23
2022-09-23T02:25:43.133Z,10.60
2022-09-23T02:27:53.062Z,12.20
2022-09-23T02:30:01.663Z,11.50
2022-09-23T02:32:13.840Z,13.95
2022-09-23T02:34:28.630Z,13.70
2022-09-23T02:36:36.901Z,13.65
2022-09-23T02:38:44.706Z,14.48
2022-09-23T02:40:58.754Z,14.18
2022-09-23T02:43:12.502Z,13.93
2022-09-23T02:45:15.066Z,16.27
2022-09-23T02:47:23.166Z,16.23
2022-09-23T02:49:29.888Z,15.68
2022-09-23T02:51:37.885Z,12.63
2022-09-23T02:53:40.365Z,13.02
2022-09-23T02:55:42.973Z,14.60
2022-09-23T02:57:45.864Z,12.52
2022-09-23T02:59:48.204Z,10.13
2022-09-23T03:02:15.631Z,10.05
2022-09-23T03:04:27.340Z,10.73
2022-09-23T03:06:38.866Z,12.00
2022-09-23T03:08:50.511Z,12.52
2022-09-23T03:11:04.401Z,11.80
2022-09-23T03:13:17.570Z,13.32
2022-09-23T03:15:25.190Z,9.82
2022-09-23T03:17:34.997Z,11.90
2022-09-23T03:19:42.831Z,11.48
2022-09-23T03:21:53.288Z,11.45
2022-09-23T03:23:59.547Z,11.10
2022-09-23T03:26:06.045Z,10.20
2022-09-23T03:28:09.886Z,13.88
2022-09-23T03:30:13.816Z,10.27
2022-09-23T03:32:21.098Z,10.20
2022-09-23T03:34:27.021Z,11.13
2022-09-23T03:36:52.026Z,17.55
2022-09-23T03:39:03.884Z,11.45
2022-09-23T03:41:10.746Z,11.07
2022-09-23T03:43:13.429Z,11.23
2022-09-23T03:45:19.120Z,12.82
2022-09-23T03:47:21.956Z,14.60
2022-09-23T03:49:27.375Z,13.55
2022-09-23T03:51:29.738Z,13.07
2022-09-23T03:53:31.982Z,12.25
2022-09-23T03:55:39.456Z,12.52
2022-09-23T03:57:41.853Z,13.77
2022-09-23T03:59:44.416Z,13.52
2022-09-23T04:01:46.735Z,11.45
2022-09-23T04:03:49.246Z,12.23
2022-09-23T04:05:51.915Z,10.10
2022-09-23T04:07:56.966Z,10.40
2022-09-23T04:09:59.453Z,10.90
2022-09-23T04:12:05.006Z,11.98
2022-09-23T04:14:08.095Z,11.93
2022-09-23T04:16:10.372Z,12.20
2022-09-23T04:18:12.634Z,11.73
2022-09-23T04:20:15.365Z,13.00
2022-09-23T04:22:17.670Z,9.80
2022-09-23T04:24:20.227Z,13.25
2022-09-23T04:26:22.437Z,12.27
2022-09-23T04:28:27.518Z,12.20
2022-09-23T04:30:29.784Z,10.45
2022-09-23T04:32:32.056Z,9.48
2022-09-23T04:34:34.364Z,9.15
2022-09-23T04:36:36.903Z,9.82
2022-09-23T04:38:39.258Z,12.02
2022-09-23T04:40:41.770Z,11.95
2022-09-23T04:42:44.999Z,14.13
2022-09-23T04:44:52.732Z,11.43
2022-09-23T04:46:55.360Z,11.57
2022-09-23T04:48:57.892Z,10.18
2022-09-23T04:51:03.406Z,12.18
2022-09-23T04:53:06.538Z,14.13
2022-09-23T04:55:11.321Z,12.68
2022-09-23T04:57:14.486Z,20.05
2022-09-23T04:59:18.312Z,24.80
2022-09-23T05:01:25.363Z,12.60
2022-09-23T05:03:27.690Z,11.95
2022-09-23T05:05:31.175Z,12.30
2022-09-23T05:07:33.490Z,11.02
2022-09-23T05:09:39.137Z,10.65
2022-09-23T05:11:41.370Z,9.85
2022-09-23T05:13:46.429Z,10.30
2022-09-23T05:15:48.925Z,9.23
2022-09-23T05:17:57.009Z,10.60
2022-09-23T05:19:59.510Z,9.70
2022-09-23T05:22:01.891Z,11.68
2022-09-23T05:24:04.940Z,11.40
2022-09-23T05:26:09.209Z,13.52
2022-09-23T05:28:13.713Z,11.25
2022-09-23T05:30:18.025Z,10.55
2022-09-23T05:32:20.408Z,10.48
2022-09-23T05:34:25.308Z,10.77
2022-09-23T05:36:33.071Z,10.63
2022-09-23T05:38:38.706Z,10.80
2022-09-23T05:40:41.039Z,12.10
2022-09-23T05:42:44.227Z,12.00
2022-09-23T05:44:47.241Z,12.50
2022-09-23T05:46:49.722Z,14.43
2022-09-23T05:48:59.861Z,13.45
2022-09-23T05:51:13.036Z,12.45
2022-09-23T05:53:15.431Z,12.13
2022-09-23T05:55:17.799Z,14.00
2022-09-23T05:57:21.111Z,13.88
2022-09-23T05:59:26.119Z,12.82
2022-09-23T06:01:33.565Z,13.40
2022-09-23T06:03:36.491Z,11.60
2022-09-23T06:05:38.712Z,15.10
2022-09-23T06:07:43.562Z,14.57
2022-09-23T06:09:45.943Z,17.77
2022-09-23T06:11:48.311Z,13.35
2022-09-23T06:13:55.136Z,18.02
2022-09-23T06:15:58.575Z,14.57
2022-09-23T06:18:01.433Z,13.10
2022-09-23T06:20:05.442Z,18.63
2022-09-23T06:22:11.023Z,14.95
2022-09-23T06:24:19.937Z,18.05
2022-09-23T06:26:24.478Z,16.77
2022-09-23T06:28:30.255Z,13.07
2022-09-23T06:30:34.853Z,14.93
2022-09-23T06:32:37.248Z,14.52
2022-09-23T06:34:50.706Z,15.45
2022-09-23T06:36:55.614Z,15.32
2022-09-23T06:38:57.981Z,14.63
2022-09-23T06:41:03.534Z,19.60
2022-09-23T06:43:07.787Z,24.00
2022-09-23T06:45:13.272Z,14.95
2022-09-23T06:47:15.528Z,18.25
2022-09-23T06:49:20.855Z,16.77
2022-09-23T06:51:23.174Z,17.73
2022-09-23T06:53:25.915Z,18.23
2022-09-23T06:55:28.272Z,19.67
2022-09-23T06:57:34.226Z,16.13
2022-09-23T06:59:36.493Z,15.60
2022-09-23T07:01:39.147Z,16.70
2022-09-23T07:03:42.281Z,18.70
2022-09-23T07:05:52.178Z,16.30
2022-09-23T07:07:54.697Z,16.65
2022-09-23T07:09:56.916Z,14.27
2022-09-23T07:11:59.233Z,17.65
2022-09-23T07:14:06.708Z,16.60
2022-09-23T07:16:10.087Z,16.45
2022-09-23T07:18:17.950Z,14.87
2022-09-23T07:20:20.289Z,13.98
2022-09-23T07:22:23.436Z,16.33
2022-09-23T07:24:25.772Z,16.83
2022-09-23T07:26:29.608Z,18.95
2022-09-23T07:28:32.283Z,17.88
2022-09-23T07:30:46.438Z,17.08
2022-09-23T07:32:54.312Z,15.18
2022-09-23T07:34:59.707Z,15.25
2022-09-23T07:37:02.867Z,17.30
2022-09-23T07:39:05.285Z,14.10
2022-09-23T07:41:10.337Z,13.77
2022-09-23T07:43:16.006Z,15.15
2022-09-23T07:45:18.525Z,15.30
2022-09-23T07:47:25.655Z,13.95
2022-09-23T07:49:28.119Z,16.00
2022-09-23T07:51:36.009Z,14.93
2022-09-23T07:53:38.519Z,14.95
2022-09-23T07:55:43.628Z,16.00
2022-09-23T07:57:46.488Z,15.23
2022-09-23T07:59:48.986Z,15.93
2022-09-23T08:01:55.574Z,13.25
2022-09-23T08:04:02.967Z,15.73
2022-09-23T08:06:07.600Z,18.42
2022-09-23T08:08:10.425Z,13.60
2022-09-23T08:10:12.877Z,13.27
2022-09-23T08:12:17.819Z,15.00
2022-09-23T08:14:22.372Z,14.25
2022-09-23T08:16:24.823Z,13.70
2022-09-23T08:18:27.519Z,14.80
2022-09-23T08:20:48.150Z,13.73
2022-09-23T08:22:51.001Z,15.75
2022-09-23T08:24:55.299Z,15.82
2022-09-23T08:27:02.158Z,14.32
2022-09-23T08:29:06.938Z,13.68
2022-09-23T08:31:09.382Z,13.32
2022-09-23T08:33:12.177Z,14.82
2022-09-23T08:35:14.860Z,16.50
2022-09-23T08:37:20.174Z,14.20
2022-09-23T08:39:23.228Z,13.70
2022-09-23T08:41:37.327Z,17.38
2022-09-23T08:43:47.475Z,14.50
2022-09-23T08:45:54.367Z,13.88
2022-09-23T08:48:02.153Z,14.30
2022-09-23T08:50:08.331Z,12.50
2022-09-23T08:52:17.875Z,13.50
2022-09-23T08:54:24.626Z,12.50
2022-09-23T08:56:29.121Z,16.75
2022-09-23T08:58:53.636Z,14.57
2022-09-23T09:01:07.131Z,13.98
2022-09-23T09:03:20.372Z,15.00
2022-09-23T09:05:26.341Z,11.88
2022-09-23T09:07:38.400Z,16.50
2022-09-23T09:09:48.874Z,12.95
2022-09-23T09:11:57.941Z,13.57
2022-09-23T09:14:04.933Z,14.50
2022-09-23T09:16:36.334Z,12.02
2022-09-23T09:18:50.702Z,13.07
2022-09-23T09:20:59.798Z,14.38
2022-09-23T09:23:14.242Z,15.80
2022-09-23T09:25:33.498Z,12.35
2022-09-23T09:27:40.656Z,12.70
2022-09-23T09:29:49.887Z,13.35
2022-09-23T09:31:52.602Z,14.60
2022-09-23T09:34:03.320Z,12.50
2022-09-23T09:36:18.808Z,12.38
2022-09-23T09:38:22.101Z,11.10
2022-09-23T09:40:27.045Z,12.40
2022-09-23T09:42:40.888Z,12.75
2022-09-23T09:47:02.075Z,12.55
2022-09-23T09:49:12.139Z,12.70
2022-09-23T09:51:20.537Z,12.10
2022-09-23T09:53:25.854Z,13.93
2022-09-23T09:55:30.868Z,16.10
2022-09-23T09:57:38.470Z,16.08
2022-09-23T09:59:43.134Z,13.27
2022-09-23T10:01:48.811Z,11.93
2022-09-23T10:03:57.066Z,13.02
2022-09-23T10:06:14.550Z,15.20
2022-09-23T10:08:24.854Z,13.38
2022-09-23T10:10:33.569Z,10.25
2022-09-23T10:12:44.633Z,12.23
2022-09-23T10:14:51.902Z,10.65
2022-09-23T10:17:05.509Z,11.10
2022-09-23T10:19:17.253Z,15.45
2022-09-23T10:21:27.799Z,11.18
2022-09-23T10:23:33.396Z,11.48
2022-09-23T10:25:38.510Z,12.50
2022-09-23T10:27:40.885Z,11.63
2022-09-23T10:29:50.902Z,10.88
2022-09-23T10:32:28.614Z,11.25
2022-09-23T10:34:35.051Z,10.25
2022-09-23T10:36:41.187Z,9.05
2022-09-23T10:39:20.294Z,12.27
2022-09-23T10:41:54.879Z,14.25
2022-09-23T10:44:08.268Z,11.18
2022-09-23T10:46:38.426Z,11.73
2022-09-23T10:48:53.356Z,8.85
2022-09-23T10:50:59.515Z,13.85
2022-09-23T10:53:12.349Z,12.00
2022-09-23T10:55:36.973Z,10.48
2022-09-23T10:57:55.479Z,10.73
2022-09-23T11:00:04.707Z,10.50
2022-09-23T11:02:30.111Z,9.75
2022-09-23T11:05:01.035Z,13.57
2022-09-23T11:07:14.289Z,13.98
2022-09-23T11:09:29.015Z,12.02
2022-09-23T11:11:46.458Z,14.38
2022-09-23T11:14:17.251Z,11.90
2022-09-23T11:16:36.294Z,11.30
2022-09-23T11:18:55.837Z,11.63
2022-09-23T11:21:09.110Z,13.70
2022-09-23T11:23:51.308Z,13.05
2022-09-23T11:26:02.487Z,13.02
2022-09-23T11:28:29.619Z,15.40
2022-09-23T11:30:44.657Z,12.65
2022-09-23T11:33:06.067Z,12.27
2022-09-23T11:35:16.809Z,12.57
2022-09-23T11:37:23.180Z,11.35
2022-09-23T11:39:29.960Z,13.13
2022-09-23T11:41:37.598Z,13.90
2022-09-23T11:43:49.565Z,9.85
2022-09-23T11:45:58.742Z,10.80
2022-09-23T11:48:09.105Z,11.80
2022-09-23T11:50:18.955Z,11.93
2022-09-23T11:52:26.460Z,19.85
2022-09-23T11:54:34.954Z,11.90
2022-09-23T11:56:45.611Z,13.63
2022-09-23T11:59:00.076Z,12.27
2022-09-23T12:01:28.740Z,11.82
2022-09-23T12:03:48.346Z,9.95
2022-09-23T12:05:58.887Z,16.80
2022-09-23T12:08:07.123Z,12.45
2022-09-23T12:10:11.939Z,13.18
2022-09-23T12:12:23.908Z,15.57
2022-09-23T12:14:35.543Z,13.02
2022-09-23T12:17:16.888Z,14.73
2022-09-23T12:19:37.171Z,11.50
2022-09-23T12:22:04.149Z,17.17
2022-09-23T12:24:26.677Z,14.98
2022-09-23T12:26:30.418Z,30.65
2022-09-23T12:28:36.205Z,12.60
2022-09-23T12:30:40.727Z,13.05
2022-09-23T12:32:46.332Z,13.68
2022-09-23T12:34:54.385Z,14.05
2022-09-23T12:37:03.372Z,13.20
2022-09-23T12:39:13.673Z,12.40
2022-09-23T12:41:24.253Z,14.05
2022-09-23T12:43:33.084Z,14.43
2022-09-23T12:45:43.096Z,15.80
2022-09-23T12:47:48.352Z,12.05
2022-09-23T12:49:53.278Z,14.88
2022-09-23T12:52:25.401Z,13.45
2022-09-23T12:54:27.837Z,15.95
2022-09-23T12:56:58.797Z,15.63
2022-09-23T12:59:11.419Z,15.55
2022-09-23T13:01:19.307Z,23.98
2022-09-23T13:03:53.326Z,12.02
2022-09-23T13:06:19.988Z,13.57
2022-09-23T13:08:25.297Z,14.77
2022-09-23T13:10:30.514Z,15.65
2022-09-23T13:12:38.413Z,15.80
2022-09-23T13:14:45.516Z,15.43
2022-09-23T13:16:49.157Z,14.27
2022-09-23T13:18:59.904Z,14.43
2022-09-23T13:21:16.994Z,11.35
2022-09-23T13:23:24.421Z,15.52
2022-09-23T13:25:28.902Z,13.75
2022-09-23T13:27:34.066Z,12.43
2022-09-23T13:29:41.146Z,13.65
2022-09-23T13:31:45.530Z,11.85
2022-09-23T13:33:53.358Z,12.52
2022-09-23T13:36:04.112Z,15.30
2022-09-23T13:38:18.708Z,17.98
2022-09-23T13:42:33.366Z,15.60
2022-09-23T13:44:46.222Z,12.95
2022-09-23T13:46:51.699Z,15.93
2022-09-23T13:48:55.386Z,14.57
2022-09-23T13:51:10.210Z,14.73
2022-09-23T13:53:18.149Z,17.05
2022-09-23T13:55:34.129Z,14.65
2022-09-23T13:57:36.986Z,15.52
2022-09-23T13:59:42.326Z,15.68
2022-09-23T14:03:48.189Z,14.57
2022-09-23T14:05:52.121Z,13.38
2022-09-23T14:10:02.165Z,17.15
2022-09-23T14:12:06.702Z,14.68
2022-09-23T14:14:15.366Z,17.02
2022-09-23T14:16:18.245Z,15.60
2022-09-23T14:18:29.000Z,14.52
2022-09-23T14:20:31.463Z,15.27
2022-09-23T14:22:33.725Z,15.30
2022-09-23T14:24:44.895Z,13.57
2022-09-23T14:26:49.582Z,16.42
2022-09-23T14:28:52.869Z,13.18
2022-09-23T14:30:57.942Z,16.17
2022-09-23T14:33:08.850Z,16.02
2022-09-23T14:35:20.312Z,15.18
2022-09-23T14:37:48.057Z,15.68
2022-09-23T14:39:57.838Z,13.45
2022-09-23T14:42:00.584Z,17.45
2022-09-23T14:44:04.506Z,15.27
2022-09-23T14:46:16.273Z,15.57
2022-09-23T14:48:26.816Z,15.35
2022-09-23T14:50:38.161Z,15.48
2022-09-23T14:52:49.183Z,14.15
2022-09-23T14:54:57.049Z,15.25
2022-09-23T14:57:00.433Z,13.57
2022-09-23T14:59:02.754Z,15.40
2022-09-23T15:01:26.160Z,13.07
2022-09-23T15:03:29.070Z,14.23
2022-09-23T15:05:39.255Z,17.15
2022-09-23T15:07:45.608Z,18.10
2022-09-23T15:09:50.937Z,16.98
2022-09-23T15:12:01.278Z,17.65
2022-09-23T15:14:33.105Z,13.48
2022-09-23T15:16:28.738Z,14.60
2022-09-23T15:18:34.148Z,16.52
2022-09-23T15:20:36.753Z,14.90
2022-09-23T15:22:44.625Z,15.77
2022-09-23T15:24:47.408Z,14.15
2022-09-23T15:26:51.420Z,14.90
2022-09-23T15:28:58.491Z,14.20
2022-09-23T15:31:01.258Z,15.23
2022-09-23T15:33:04.193Z,14.38
2022-09-23T15:35:07.908Z,21.83
2022-09-23T15:37:12.739Z,12.20
2022-09-23T15:39:15.456Z,14.55
2022-09-23T15:41:26.754Z,17.48
2022-09-23T15:43:33.995Z,14.43
2022-09-23T15:45:44.693Z,16.10
2022-09-23T15:47:50.761Z,17.05
2022-09-23T15:49:55.849Z,16.75
2022-09-23T15:52:00.284Z,19.80
2022-09-23T15:54:04.174Z,18.88
2022-09-23T15:56:06.555Z,15.82
2022-09-23T15:58:08.930Z,15.40
2022-09-23T16:00:16.099Z,18.67
2022-09-23T16:02:24.308Z,20.65
2022-09-23T16:04:28.353Z,17.08
2022-09-23T16:06:36.151Z,14.38
2022-09-23T16:08:42.285Z,18.52
2022-09-23T16:10:47.884Z,10.98
2022-09-23T16:12:52.214Z,15.38
2022-09-23T16:14:54.598Z,15.23
2022-09-23T16:16:57.651Z,16.75
2022-09-23T16:19:02.762Z,16.13
2022-09-23T16:21:07.829Z,19.42
2022-09-23T16:23:20.956Z,11.63
2022-09-23T16:25:29.259Z,17.83
2022-09-23T16:27:34.193Z,13.88
2022-09-23T16:29:36.569Z,15.73
2022-09-23T16:31:41.249Z,13.73
2022-09-23T16:33:47.351Z,16.15
2022-09-23T16:35:52.573Z,12.45
2022-09-23T16:37:55.835Z,17.15
2022-09-23T16:39:59.506Z,13.65
2022-09-23T16:42:02.337Z,14.18
2022-09-23T16:44:09.403Z,15.43
2022-09-23T16:46:13.282Z,15.98
2022-09-23T16:48:19.806Z,11.77
2022-09-23T16:50:23.478Z,12.10
2022-09-23T16:52:31.202Z,12.00
2022-09-23T16:54:37.513Z,16.90
2022-09-23T16:56:44.280Z,13.85
2022-09-23T16:58:49.478Z,13.10
2022-09-23T17:01:16.425Z,13.88
2022-09-23T17:03:37.422Z,13.18
2022-09-23T17:05:39.857Z,16.77
2022-09-23T17:07:45.027Z,15.75
2022-09-23T17:09:47.509Z,15.23
2022-09-23T17:11:58.024Z,17.65
2022-09-23T17:14:00.992Z,16.27
2022-09-23T17:16:03.737Z,17.83
2022-09-23T17:18:09.824Z,14.95
2022-09-23T17:20:14.300Z,15.68
2022-09-23T17:22:16.680Z,14.40
2022-09-23T17:24:25.342Z,13.93
2022-09-23T17:26:28.301Z,13.45
2022-09-23T17:28:37.549Z,12.35
2022-09-23T17:30:40.719Z,14.57
2022-09-23T17:32:43.427Z,14.05
2022-09-23T17:34:45.817Z,12.27
2022-09-23T17:36:48.600Z,13.98
2022-09-23T17:38:54.536Z,15.10
2022-09-23T17:41:01.422Z,14.98
2022-09-23T17:43:06.313Z,13.48
2022-09-23T17:45:10.507Z,13.55
2022-09-23T17:49:17.819Z,13.85
2022-09-23T17:51:24.126Z,14.40
2022-09-23T17:53:28.896Z,12.55
2022-09-23T17:55:33.333Z,13.10
2022-09-23T17:57:38.359Z,14.68
2022-09-23T17:59:40.793Z,12.60
2022-09-23T18:01:43.501Z,12.52
2022-09-23T18:03:56.989Z,13.77
2022-09-23T18:06:07.600Z,13.43
2022-09-23T18:08:13.300Z,13.25
2022-09-23T18:10:15.804Z,13.65
2022-09-23T18:12:20.379Z,14.23
2022-09-23T18:14:26.239Z,15.07
2022-09-23T18:16:30.984Z,13.18
2022-09-23T18:18:38.796Z,14.15
2022-09-23T18:20:47.351Z,16.38
2022-09-23T18:22:56.539Z,14.20
2022-09-23T18:25:22.745Z,14.57
2022-09-23T18:27:34.326Z,11.23
2022-09-23T18:29:43.865Z,15.50
2022-09-23T18:31:49.392Z,13.20
2022-09-23T18:33:53.069Z,11.48
2022-09-23T18:35:55.389Z,14.95
2022-09-23T18:37:57.863Z,18.38
2022-09-23T18:40:04.522Z,14.40
2022-09-23T18:42:06.905Z,16.60
2022-09-23T18:44:09.759Z,14.40
2022-09-23T18:46:19.108Z,13.07
2022-09-23T18:48:45.673Z,16.67
2022-09-23T18:50:49.343Z,16.50
2022-09-23T18:52:51.711Z,14.52
2022-09-23T18:54:55.040Z,18.70
2022-09-23T18:59:01.935Z,14.50
2022-09-23T19:01:09.674Z,15.48
2022-09-23T19:03:18.049Z,19.30
2022-09-23T19:05:20.517Z,16.95
2022-09-23T19:07:22.940Z,16.77
2022-09-23T19:09:25.460Z,18.63
2022-09-23T19:11:28.097Z,17.88
2022-09-23T19:13:34.329Z,15.45
2022-09-23T19:15:36.670Z,16.05
2022-09-23T19:17:38.974Z,17.27
2022-09-23T19:19:46.666Z,17.35
2022-09-23T19:21:49.052Z,16.58
2022-09-23T19:23:53.763Z,16.75
2022-09-23T19:25:56.340Z,18.58
2022-09-23T19:27:58.615Z,18.92
2022-09-23T19:30:01.305Z,17.02
2022-09-23T19:32:03.705Z,16.45
2022-09-23T19:34:10.766Z,16.13
2022-09-23T19:36:17.352Z,13.73
2022-09-23T19:38:21.468Z,14.05
2022-09-23T19:40:27.207Z,16.67
2022-09-23T19:42:30.390Z,14.98
2022-09-23T19:44:32.907Z,16.00
2022-09-23T19:46:39.989Z,15.82
2022-09-23T19:48:45.621Z,15.93
2022-09-23T19:50:48.327Z,18.42
2022-09-23T19:52:53.231Z,17.90
2022-09-23T19:54:55.838Z,17.90
2022-09-23T19:56:59.498Z,18.52
2022-09-23T19:59:05.952Z,17.17
2022-09-23T20:01:08.544Z,16.27
2022-09-23T20:03:12.197Z,19.02
2022-09-23T20:05:19.654Z,16.98
2022-09-23T20:07:24.063Z,16.10
2022-09-23T20:09:29.284Z,19.23
2022-09-23T20:11:32.519Z,16.23
2022-09-23T20:13:37.422Z,17.02
2022-09-23T20:15:43.887Z,18.50
2022-09-23T20:17:46.257Z,20.67
2022-09-23T20:19:51.606Z,20.25
2022-09-23T20:22:15.105Z,19.48
2022-09-23T20:24:17.593Z,18.67
2022-09-23T20:26:41.530Z,16.15
2022-09-23T20:28:44.252Z,17.90
2022-09-23T20:30:46.673Z,17.60
2022-09-23T20:32:50.488Z,21.33
2022-09-23T20:34:53.607Z,19.08
2022-09-23T20:37:02.439Z,19.42
2022-09-23T20:39:06.197Z,18.48
2022-09-23T20:41:09.417Z,18.15
2022-09-23T20:43:16.199Z,16.70
2022-09-23T20:45:18.724Z,21.40
2022-09-23T20:47:23.830Z,19.92
2022-09-23T20:49:26.366Z,20.83
2022-09-23T20:51:28.893Z,17.75
2022-09-23T20:53:32.388Z,17.85
2022-09-23T20:55:34.734Z,19.75
2022-09-23T20:57:38.185Z,17.88
2022-09-23T20:59:43.667Z,24.75
2022-09-23T21:01:47.868Z,25.08
2022-09-23T21:03:52.422Z,22.00
2022-09-23T21:05:56.079Z,25.83
2022-09-23T21:08:02.789Z,25.20
2022-09-23T21:10:08.602Z,20.85
2022-09-23T21:12:11.529Z,22.77
2022-09-23T21:14:15.901Z,22.40
2022-09-23T21:16:22.853Z,22.98
2022-09-23T21:18:25.368Z,23.55
2022-09-23T21:20:28.451Z,21.67
2022-09-23T21:22:31.244Z,20.27
2022-09-23T21:25:03.841Z,24.80
2022-09-23T21:26:56.930Z,25.70
2022-09-23T21:29:01.235Z,22.92
2022-09-23T21:31:05.748Z,24.15
2022-09-23T21:33:11.284Z,26.52
2022-09-23T21:35:14.347Z,26.88
2022-09-23T21:37:16.673Z,19.73
2022-09-23T21:39:19.557Z,23.85
2022-09-23T21:41:25.099Z,22.70
2022-09-23T21:43:31.822Z,23.60
2022-09-23T21:45:34.249Z,22.38
2022-09-23T21:47:36.742Z,25.80
2022-09-23T21:49:41.725Z,23.70
2022-09-23T21:51:55.204Z,22.65
2022-09-23T21:53:58.448Z,21.40
2022-09-23T21:56:03.491Z,26.27
2022-09-23T21:58:06.680Z,22.88
2022-09-23T22:00:11.344Z,28.13
2022-09-23T22:02:13.598Z,25.55
2022-09-23T22:04:18.146Z,25.08
2022-09-23T22:06:26.917Z,21.30
2022-09-23T22:08:31.945Z,27.00
2022-09-23T22:10:35.707Z,25.73
2022-09-23T22:12:39.931Z,24.83
2022-09-23T22:16:47.067Z,24.65
2022-09-23T22:18:51.100Z,26.15
2022-09-23T22:20:56.508Z,24.15
2022-09-23T22:23:08.360Z,26.27
2022-09-23T22:25:12.613Z,30.63
2022-09-23T22:29:36.528Z,25.55
2022-09-23T22:31:57.766Z,26.27
2022-09-23T22:34:00.214Z,27.83
2022-09-23T22:36:03.831Z,27.40
2022-09-23T22:38:11.423Z,26.05
2022-09-23T22:40:18.985Z,27.08
2022-09-23T22:42:22.525Z,29.13
2022-09-23T22:44:28.302Z,32.20
2022-09-23T22:46:33.475Z,28.85
2022-09-23T22:48:38.520Z,29.15
2022-09-23T22:50:48.788Z,27.42
2022-09-23T22:52:51.942Z,27.98
2022-09-23T22:54:56.852Z,35.78
2022-09-23T22:57:01.284Z,32.13
2022-09-23T22:59:06.789Z,29.50
2022-09-23T23:01:11.451Z,33.88
2022-09-23T23:03:14.163Z,33.58
2022-09-23T23:05:16.896Z,32.45
2022-09-23T23:07:21.150Z,33.58
2022-09-23T23:09:23.644Z,28.42
2022-09-23T23:11:30.804Z,32.92
2022-09-23T23:13:34.402Z,34.47
2022-09-23T23:15:42.374Z,35.10
2022-09-23T23:17:45.007Z,34.05
2022-09-23T23:19:47.786Z,31.27
2022-09-23T23:21:50.584Z,33.25
2022-09-23T23:23:53.708Z,37.83
2022-09-23T23:25:56.176Z,33.58
2022-09-23T23:28:05.649Z,32.88
2022-09-23T23:30:11.772Z,35.90
2022-09-23T23:32:16.271Z,31.33
2022-09-23T23:34:23.046Z,33.10
2022-09-23T23:36:26.334Z,37.28
2022-09-23T23:38:28.877Z,30.48
2022-09-23T23:40:31.244Z,38.58
2022-09-23T23:42:34.687Z,32.92
2022-09-23T23:44:39.733Z,38.83
2022-09-23T23:46:42.109Z,31.00
2022-09-23T23:48:48.226Z,36.92
2022-09-23T23:50:54.776Z,36.75
2022-09-23T23:52:58.070Z,37.40
2022-09-23T23:55:03.950Z,37.00
2022-09-23T23:57:06.284Z,46.63
2022-09-23T23:59:10.402Z,46.92
